sensor_id;sensor_type;location;lat;lon;timestamp;pressure;altitude;pressure_sealevel;temperature
69545;BMP180;56766;52.260;20.746;2023-12-07T00:01:16;100717.80;;;-1.36
69545;BMP180;56766;52.260;20.746;2023-12-07T00:03:44;100721.00;;;-1.30
69545;BMP180;56766;52.260;20.746;2023-12-07T00:06:10;100724.40;;;-1.30
69545;BMP180;56766;52.260;20.746;2023-12-07T00:08:36;100728.40;;;-1.30
69545;BMP180;56766;52.260;20.746;2023-12-07T00:11:02;100723.00;;;-1.30
69545;BMP180;56766;52.260;20.746;2023-12-07T00:13:28;100723.40;;;-1.30
69545;BMP180;56766;52.260;20.746;2023-12-07T00:15:54;100723.20;;;-1.32
69545;BMP180;56766;52.260;20.746;2023-12-07T00:18:23;100728.60;;;-1.32
69545;BMP180;56766;52.260;20.746;2023-12-07T00:20:53;100725.80;;;-1.30
69545;BMP180;56766;52.260;20.746;2023-12-07T00:23:20;100727.80;;;-1.30
69545;BMP180;56766;52.260;20.746;2023-12-07T00:25:47;100731.40;;;-1.30
69545;BMP180;56766;52.260;20.746;2023-12-07T00:28:17;100728.80;;;-1.30
69545;BMP180;56766;52.260;20.746;2023-12-07T00:30:43;100733.80;;;-1.30
69545;BMP180;56766;52.260;20.746;2023-12-07T00:33:15;100729.00;;;-1.30
69545;BMP180;56766;52.260;20.746;2023-12-07T00:35:56;100728.60;;;-1.30
69545;BMP180;56766;52.260;20.746;2023-12-07T00:38:22;100734.40;;;-1.30
69545;BMP180;56766;52.260;20.746;2023-12-07T00:40:49;100732.40;;;-1.30
69545;BMP180;56766;52.260;20.746;2023-12-07T00:43:25;100732.00;;;-1.30
69545;BMP180;56766;52.260;20.746;2023-12-07T00:45:51;100729.00;;;-1.30
69545;BMP180;56766;52.260;20.746;2023-12-07T00:48:18;100731.80;;;-1.30
69545;BMP180;56766;52.260;20.746;2023-12-07T00:50:44;100731.60;;;-1.30
69545;BMP180;56766;52.260;20.746;2023-12-07T00:53:10;100732.00;;;-1.26
69545;BMP180;56766;52.260;20.746;2023-12-07T00:55:36;100727.00;;;-1.28
69545;BMP180;56766;52.260;20.746;2023-12-07T00:58:02;100732.00;;;-1.28
69545;BMP180;56766;52.260;20.746;2023-12-07T01:00:28;100729.80;;;-1.30
69545;BMP180;56766;52.260;20.746;2023-12-07T01:02:57;100731.00;;;-1.26
69545;BMP180;56766;52.260;20.746;2023-12-07T01:05:23;100734.60;;;-1.26
69545;BMP180;56766;52.260;20.746;2023-12-07T01:07:49;100732.60;;;-1.22
69545;BMP180;56766;52.260;20.746;2023-12-07T01:10:15;100737.80;;;-1.20
69545;BMP180;56766;52.260;20.746;2023-12-07T01:12:41;100734.60;;;-1.22
69545;BMP180;56766;52.260;20.746;2023-12-07T01:15:08;100738.40;;;-1.22
69545;BMP180;56766;52.260;20.746;2023-12-07T01:17:34;100733.60;;;-1.26
69545;BMP180;56766;52.260;20.746;2023-12-07T01:20:00;100737.40;;;-1.24
69545;BMP180;56766;52.260;20.746;2023-12-07T01:22:26;100737.80;;;-1.28
69545;BMP180;56766;52.260;20.746;2023-12-07T01:24:52;100741.00;;;-1.26
69545;BMP180;56766;52.260;20.746;2023-12-07T01:27:18;100735.00;;;-1.30
69545;BMP180;56766;52.260;20.746;2023-12-07T01:29:43;100731.00;;;-1.28
69545;BMP180;56766;52.260;20.746;2023-12-07T01:32:10;100735.60;;;-1.30
69545;BMP180;56766;52.260;20.746;2023-12-07T01:34:36;100733.20;;;-1.30
69545;BMP180;56766;52.260;20.746;2023-12-07T01:37:03;100733.40;;;-1.20
69545;BMP180;56766;52.260;20.746;2023-12-07T01:39:33;100732.60;;;-1.20
69545;BMP180;56766;52.260;20.746;2023-12-07T01:41:59;100727.60;;;-1.20
69545;BMP180;56766;52.260;20.746;2023-12-07T01:44:25;100728.20;;;-1.20
69545;BMP180;56766;52.260;20.746;2023-12-07T01:46:54;100726.40;;;-1.20
69545;BMP180;56766;52.260;20.746;2023-12-07T01:49:23;100729.40;;;-1.20
69545;BMP180;56766;52.260;20.746;2023-12-07T01:51:49;100731.40;;;-1.20
69545;BMP180;56766;52.260;20.746;2023-12-07T01:54:15;100726.40;;;-1.20
69545;BMP180;56766;52.260;20.746;2023-12-07T01:56:42;100731.20;;;-1.20
69545;BMP180;56766;52.260;20.746;2023-12-07T01:59:10;100734.60;;;-1.20
69545;BMP180;56766;52.260;20.746;2023-12-07T02:01:37;100730.20;;;-1.18
69545;BMP180;56766;52.260;20.746;2023-12-07T02:04:03;100728.40;;;-1.16
69545;BMP180;56766;52.260;20.746;2023-12-07T02:06:30;100724.00;;;-1.14
69545;BMP180;56766;52.260;20.746;2023-12-07T02:08:56;100725.40;;;-1.10
69545;BMP180;56766;52.260;20.746;2023-12-07T02:11:22;100730.00;;;-1.10
69545;BMP180;56766;52.260;20.746;2023-12-07T02:13:48;100733.60;;;-1.10
69545;BMP180;56766;52.260;20.746;2023-12-07T02:16:30;100735.80;;;-1.10
69545;BMP180;56766;52.260;20.746;2023-12-07T02:22:17;100734.60;;;-1.10
69545;BMP180;56766;52.260;20.746;2023-12-07T02:25:06;100729.40;;;-1.10
69545;BMP180;56766;52.260;20.746;2023-12-07T02:27:40;100730.20;;;-1.10
69545;BMP180;56766;52.260;20.746;2023-12-07T02:30:10;100731.60;;;-1.10
69545;BMP180;56766;52.260;20.746;2023-12-07T02:32:38;100733.00;;;-1.02
69545;BMP180;56766;52.260;20.746;2023-12-07T02:35:08;100736.40;;;-1.00
69545;BMP180;56766;52.260;20.746;2023-12-07T02:37:45;100738.40;;;-1.00
69545;BMP180;56766;52.260;20.746;2023-12-07T02:40:18;100737.20;;;-1.00
69545;BMP180;56766;52.260;20.746;2023-12-07T02:42:46;100736.40;;;-1.00
69545;BMP180;56766;52.260;20.746;2023-12-07T02:45:13;100738.20;;;-1.00
69545;BMP180;56766;52.260;20.746;2023-12-07T02:47:39;100740.60;;;-1.00
69545;BMP180;56766;52.260;20.746;2023-12-07T02:50:07;100746.20;;;-1.00
69545;BMP180;56766;52.260;20.746;2023-12-07T02:52:34;100740.20;;;-1.00
69545;BMP180;56766;52.260;20.746;2023-12-07T02:55:01;100738.20;;;-1.00
69545;BMP180;56766;52.260;20.746;2023-12-07T02:57:28;100739.60;;;-1.00
69545;BMP180;56766;52.260;20.746;2023-12-07T02:59:56;100733.20;;;-1.00
69545;BMP180;56766;52.260;20.746;2023-12-07T03:02:22;100742.60;;;-1.00
69545;BMP180;56766;52.260;20.746;2023-12-07T03:04:48;100739.20;;;-1.00
69545;BMP180;56766;52.260;20.746;2023-12-07T03:07:14;100742.40;;;-1.00
69545;BMP180;56766;52.260;20.746;2023-12-07T03:09:40;100740.60;;;-1.00
69545;BMP180;56766;52.260;20.746;2023-12-07T03:12:06;100739.60;;;-1.00
69545;BMP180;56766;52.260;20.746;2023-12-07T03:14:32;100740.60;;;-1.00
69545;BMP180;56766;52.260;20.746;2023-12-07T03:16:58;100744.40;;;-1.00
69545;BMP180;56766;52.260;20.746;2023-12-07T03:19:25;100744.80;;;-0.98
69545;BMP180;56766;52.260;20.746;2023-12-07T03:21:51;100738.20;;;-1.00
69545;BMP180;56766;52.260;20.746;2023-12-07T03:24:17;100738.60;;;-1.00
69545;BMP180;56766;52.260;20.746;2023-12-07T03:26:43;100747.20;;;-0.92
69545;BMP180;56766;52.260;20.746;2023-12-07T03:29:09;100744.80;;;-0.90
69545;BMP180;56766;52.260;20.746;2023-12-07T03:31:36;100745.80;;;-0.90
69545;BMP180;56766;52.260;20.746;2023-12-07T03:34:02;100745.60;;;-0.90
69545;BMP180;56766;52.260;20.746;2023-12-07T03:36:29;100754.20;;;-0.90
69545;BMP180;56766;52.260;20.746;2023-12-07T03:38:55;100755.00;;;-0.90
69545;BMP180;56766;52.260;20.746;2023-12-07T03:41:21;100751.20;;;-0.90
69545;BMP180;56766;52.260;20.746;2023-12-07T03:43:47;100751.20;;;-0.90
69545;BMP180;56766;52.260;20.746;2023-12-07T03:46:13;100749.60;;;-0.90
69545;BMP180;56766;52.260;20.746;2023-12-07T03:48:38;100748.00;;;-0.90
69545;BMP180;56766;52.260;20.746;2023-12-07T03:51:04;100748.80;;;-0.90
69545;BMP180;56766;52.260;20.746;2023-12-07T03:53:32;100753.40;;;-0.90
69545;BMP180;56766;52.260;20.746;2023-12-07T03:55:58;100752.80;;;-0.90
69545;BMP180;56766;52.260;20.746;2023-12-07T03:58:23;100754.80;;;-0.90
69545;BMP180;56766;52.260;20.746;2023-12-07T04:00:49;100756.00;;;-0.90
69545;BMP180;56766;52.260;20.746;2023-12-07T04:03:15;100755.40;;;-0.90
69545;BMP180;56766;52.260;20.746;2023-12-07T04:05:41;100756.40;;;-0.90
69545;BMP180;56766;52.260;20.746;2023-12-07T04:08:07;100752.80;;;-0.90
69545;BMP180;56766;52.260;20.746;2023-12-07T04:10:33;100753.60;;;-0.90
69545;BMP180;56766;52.260;20.746;2023-12-07T04:12:59;100751.20;;;-0.90
69545;BMP180;56766;52.260;20.746;2023-12-07T04:15:26;100745.60;;;-0.90
69545;BMP180;56766;52.260;20.746;2023-12-07T04:17:52;100749.20;;;-0.90
69545;BMP180;56766;52.260;20.746;2023-12-07T04:20:18;100747.40;;;-0.90
69545;BMP180;56766;52.260;20.746;2023-12-07T04:22:44;100739.40;;;-0.90
69545;BMP180;56766;52.260;20.746;2023-12-07T04:25:11;100735.40;;;-0.90
69545;BMP180;56766;52.260;20.746;2023-12-07T04:27:37;100746.80;;;-0.90
69545;BMP180;56766;52.260;20.746;2023-12-07T04:30:04;100744.00;;;-0.90
69545;BMP180;56766;52.260;20.746;2023-12-07T04:32:30;100748.00;;;-0.90
69545;BMP180;56766;52.260;20.746;2023-12-07T04:34:56;100742.20;;;-0.90
69545;BMP180;56766;52.260;20.746;2023-12-07T04:37:22;100748.60;;;-0.90
69545;BMP180;56766;52.260;20.746;2023-12-07T04:39:48;100751.40;;;-0.90
69545;BMP180;56766;52.260;20.746;2023-12-07T04:42:14;100744.60;;;-0.90
69545;BMP180;56766;52.260;20.746;2023-12-07T04:44:40;100749.80;;;-0.90
69545;BMP180;56766;52.260;20.746;2023-12-07T04:47:06;100752.00;;;-0.90
69545;BMP180;56766;52.260;20.746;2023-12-07T04:49:33;100752.00;;;-0.90
69545;BMP180;56766;52.260;20.746;2023-12-07T04:52:00;100751.60;;;-0.90
69545;BMP180;56766;52.260;20.746;2023-12-07T04:54:26;100754.40;;;-0.90
69545;BMP180;56766;52.260;20.746;2023-12-07T04:56:54;100751.80;;;-0.90
69545;BMP180;56766;52.260;20.746;2023-12-07T04:59:20;100756.00;;;-0.90
69545;BMP180;56766;52.260;20.746;2023-12-07T05:01:47;100754.60;;;-0.90
69545;BMP180;56766;52.260;20.746;2023-12-07T05:04:13;100756.60;;;-0.90
69545;BMP180;56766;52.260;20.746;2023-12-07T05:06:40;100754.80;;;-0.90
69545;BMP180;56766;52.260;20.746;2023-12-07T05:09:06;100762.40;;;-0.90
69545;BMP180;56766;52.260;20.746;2023-12-07T05:11:35;100761.60;;;-0.90
69545;BMP180;56766;52.260;20.746;2023-12-07T05:14:02;100758.00;;;-0.90
69545;BMP180;56766;52.260;20.746;2023-12-07T05:16:29;100754.00;;;-0.90
69545;BMP180;56766;52.260;20.746;2023-12-07T05:18:57;100759.40;;;-0.90
69545;BMP180;56766;52.260;20.746;2023-12-07T05:21:23;100764.60;;;-0.90
69545;BMP180;56766;52.260;20.746;2023-12-07T05:23:50;100762.40;;;-0.90
69545;BMP180;56766;52.260;20.746;2023-12-07T05:26:17;100766.20;;;-0.90
69545;BMP180;56766;52.260;20.746;2023-12-07T05:28:43;100770.60;;;-0.90
69545;BMP180;56766;52.260;20.746;2023-12-07T05:31:17;100770.60;;;-0.90
69545;BMP180;56766;52.260;20.746;2023-12-07T05:33:44;100766.00;;;-0.90
69545;BMP180;56766;52.260;20.746;2023-12-07T05:36:10;100769.80;;;-0.90
69545;BMP180;56766;52.260;20.746;2023-12-07T05:38:37;100772.80;;;-0.90
69545;BMP180;56766;52.260;20.746;2023-12-07T05:41:03;100771.20;;;-0.90
69545;BMP180;56766;52.260;20.746;2023-12-07T05:43:30;100771.40;;;-0.90
69545;BMP180;56766;52.260;20.746;2023-12-07T05:45:56;100774.60;;;-0.90
69545;BMP180;56766;52.260;20.746;2023-12-07T05:48:23;100771.60;;;-0.90
69545;BMP180;56766;52.260;20.746;2023-12-07T05:50:52;100770.80;;;-0.90
69545;BMP180;56766;52.260;20.746;2023-12-07T05:53:18;100776.80;;;-0.90
69545;BMP180;56766;52.260;20.746;2023-12-07T05:55:44;100784.20;;;-0.90
69545;BMP180;56766;52.260;20.746;2023-12-07T05:58:10;100784.00;;;-0.92
69545;BMP180;56766;52.260;20.746;2023-12-07T06:00:36;100790.00;;;-0.96
69545;BMP180;56766;52.260;20.746;2023-12-07T06:03:03;100788.60;;;-0.98
69545;BMP180;56766;52.260;20.746;2023-12-07T06:05:31;100792.00;;;-1.00
69545;BMP180;56766;52.260;20.746;2023-12-07T06:07:57;100796.00;;;-1.00
69545;BMP180;56766;52.260;20.746;2023-12-07T06:10:23;100796.60;;;-1.00
69545;BMP180;56766;52.260;20.746;2023-12-07T06:12:48;100797.80;;;-1.00
69545;BMP180;56766;52.260;20.746;2023-12-07T06:15:16;100800.60;;;-1.00
69545;BMP180;56766;52.260;20.746;2023-12-07T06:17:42;100801.80;;;-0.96
69545;BMP180;56766;52.260;20.746;2023-12-07T06:20:09;100801.60;;;-0.90
69545;BMP180;56766;52.260;20.746;2023-12-07T06:22:35;100809.20;;;-0.90
69545;BMP180;56766;52.260;20.746;2023-12-07T06:25:03;100810.20;;;-0.90
69545;BMP180;56766;52.260;20.746;2023-12-07T06:27:29;100813.40;;;-0.90
69545;BMP180;56766;52.260;20.746;2023-12-07T06:29:55;100818.00;;;-0.90
69545;BMP180;56766;52.260;20.746;2023-12-07T06:32:21;100823.60;;;-0.88
69545;BMP180;56766;52.260;20.746;2023-12-07T06:34:47;100821.40;;;-0.86
69545;BMP180;56766;52.260;20.746;2023-12-07T06:37:13;100824.20;;;-0.80
69545;BMP180;56766;52.260;20.746;2023-12-07T06:39:39;100826.40;;;-0.80
69545;BMP180;56766;52.260;20.746;2023-12-07T06:42:05;100831.40;;;-0.80
69545;BMP180;56766;52.260;20.746;2023-12-07T06:44:32;100824.40;;;-0.80
69545;BMP180;56766;52.260;20.746;2023-12-07T06:46:58;100822.60;;;-0.80
69545;BMP180;56766;52.260;20.746;2023-12-07T06:49:24;100825.60;;;-0.80
69545;BMP180;56766;52.260;20.746;2023-12-07T06:51:50;100826.80;;;-0.80
69545;BMP180;56766;52.260;20.746;2023-12-07T06:54:16;100830.00;;;-0.80
69545;BMP180;56766;52.260;20.746;2023-12-07T06:56:42;100835.80;;;-0.80
69545;BMP180;56766;52.260;20.746;2023-12-07T06:59:08;100834.20;;;-0.70
69545;BMP180;56766;52.260;20.746;2023-12-07T07:01:34;100830.20;;;-0.70
69545;BMP180;56766;52.260;20.746;2023-12-07T07:04:00;100841.00;;;-0.70
69545;BMP180;56766;52.260;20.746;2023-12-07T07:06:27;100838.60;;;-0.70
69545;BMP180;56766;52.260;20.746;2023-12-07T07:08:53;100834.20;;;-0.70
69545;BMP180;56766;52.260;20.746;2023-12-07T07:11:19;100842.80;;;-0.60
69545;BMP180;56766;52.260;20.746;2023-12-07T07:13:45;100838.00;;;-0.60
69545;BMP180;56766;52.260;20.746;2023-12-07T07:16:11;100834.40;;;-0.60
69545;BMP180;56766;52.260;20.746;2023-12-07T07:18:38;100835.00;;;-0.60
69545;BMP180;56766;52.260;20.746;2023-12-07T07:21:06;100838.80;;;-0.52
69545;BMP180;56766;52.260;20.746;2023-12-07T07:23:34;100835.60;;;-0.50
69545;BMP180;56766;52.260;20.746;2023-12-07T07:26:00;100835.40;;;-0.50
69545;BMP180;56766;52.260;20.746;2023-12-07T07:28:26;100836.20;;;-0.50
69545;BMP180;56766;52.260;20.746;2023-12-07T07:30:52;100839.00;;;-0.44
69545;BMP180;56766;52.260;20.746;2023-12-07T07:33:19;100832.80;;;-0.40
69545;BMP180;56766;52.260;20.746;2023-12-07T07:35:45;100838.60;;;-0.40
69545;BMP180;56766;52.260;20.746;2023-12-07T07:38:11;100835.40;;;-0.36
69545;BMP180;56766;52.260;20.746;2023-12-07T07:40:37;100825.40;;;-0.30
69545;BMP180;56766;52.260;20.746;2023-12-07T07:43:03;100832.60;;;-0.26
69545;BMP180;56766;52.260;20.746;2023-12-07T07:45:29;100835.20;;;-0.20
69545;BMP180;56766;52.260;20.746;2023-12-07T07:47:55;100835.80;;;-0.10
69545;BMP180;56766;52.260;20.746;2023-12-07T07:50:21;100839.80;;;-0.10
69545;BMP180;56766;52.260;20.746;2023-12-07T07:52:47;100843.60;;;0.00
69545;BMP180;56766;52.260;20.746;2023-12-07T07:55:13;100843.80;;;0.06
69545;BMP180;56766;52.260;20.746;2023-12-07T07:57:39;100845.60;;;0.10
69545;BMP180;56766;52.260;20.746;2023-12-07T08:00:06;100842.20;;;0.20
69545;BMP180;56766;52.260;20.746;2023-12-07T08:02:34;100848.40;;;0.26
69545;BMP180;56766;52.260;20.746;2023-12-07T08:05:03;100849.40;;;0.30
69545;BMP180;56766;52.260;20.746;2023-12-07T08:07:29;100844.20;;;0.30
69545;BMP180;56766;52.260;20.746;2023-12-07T08:09:55;100845.80;;;0.30
69545;BMP180;56766;52.260;20.746;2023-12-07T08:12:21;100846.20;;;0.38
69545;BMP180;56766;52.260;20.746;2023-12-07T08:14:49;100844.60;;;0.40
69545;BMP180;56766;52.260;20.746;2023-12-07T08:17:15;100840.00;;;0.40
69545;BMP180;56766;52.260;20.746;2023-12-07T08:19:42;100848.20;;;0.40
69545;BMP180;56766;52.260;20.746;2023-12-07T08:22:08;100845.40;;;0.40
69545;BMP180;56766;52.260;20.746;2023-12-07T08:24:35;100855.40;;;0.40
69545;BMP180;56766;52.260;20.746;2023-12-07T08:27:01;100854.00;;;0.48
69545;BMP180;56766;52.260;20.746;2023-12-07T08:29:29;100854.60;;;0.50
69545;BMP180;56766;52.260;20.746;2023-12-07T08:31:55;100862.60;;;0.50
69545;BMP180;56766;52.260;20.746;2023-12-07T08:34:21;100857.40;;;0.50
69545;BMP180;56766;52.260;20.746;2023-12-07T08:36:47;100862.60;;;0.50
69545;BMP180;56766;52.260;20.746;2023-12-07T08:39:13;100860.40;;;0.50
69545;BMP180;56766;52.260;20.746;2023-12-07T08:41:39;100854.40;;;0.50
69545;BMP180;56766;52.260;20.746;2023-12-07T08:44:05;100855.40;;;0.60
69545;BMP180;56766;52.260;20.746;2023-12-07T08:46:31;100852.80;;;0.64
69545;BMP180;56766;52.260;20.746;2023-12-07T08:48:57;100849.60;;;0.70
69545;BMP180;56766;52.260;20.746;2023-12-07T08:51:23;100849.60;;;0.80
69545;BMP180;56766;52.260;20.746;2023-12-07T08:53:50;100851.80;;;0.80
69545;BMP180;56766;52.260;20.746;2023-12-07T08:56:19;100850.60;;;0.92
69545;BMP180;56766;52.260;20.746;2023-12-07T08:58:45;100854.00;;;1.04
69545;BMP180;56766;52.260;20.746;2023-12-07T09:01:11;100857.40;;;1.10
69545;BMP180;56766;52.260;20.746;2023-12-07T09:03:37;100860.40;;;1.10
69545;BMP180;56766;52.260;20.746;2023-12-07T09:06:04;100864.60;;;1.10
69545;BMP180;56766;52.260;20.746;2023-12-07T09:08:31;100867.40;;;1.10
69545;BMP180;56766;52.260;20.746;2023-12-07T09:10:57;100867.40;;;1.10
69545;BMP180;56766;52.260;20.746;2023-12-07T09:13:23;100870.00;;;1.10
69545;BMP180;56766;52.260;20.746;2023-12-07T09:15:49;100864.80;;;1.10
69545;BMP180;56766;52.260;20.746;2023-12-07T09:18:15;100860.40;;;1.10
69545;BMP180;56766;52.260;20.746;2023-12-07T09:20:41;100864.20;;;1.10
69545;BMP180;56766;52.260;20.746;2023-12-07T09:23:14;100862.20;;;1.20
69545;BMP180;56766;52.260;20.746;2023-12-07T09:25:43;100863.00;;;1.20
69545;BMP180;56766;52.260;20.746;2023-12-07T09:28:09;100853.80;;;1.30
69545;BMP180;56766;52.260;20.746;2023-12-07T09:30:35;100860.00;;;1.30
69545;BMP180;56766;52.260;20.746;2023-12-07T09:33:01;100858.20;;;1.40
69545;BMP180;56766;52.260;20.746;2023-12-07T09:35:31;100855.00;;;1.50
69545;BMP180;56766;52.260;20.746;2023-12-07T09:37:57;100853.80;;;1.50
69545;BMP180;56766;52.260;20.746;2023-12-07T09:40:24;100851.40;;;1.50
69545;BMP180;56766;52.260;20.746;2023-12-07T09:42:51;100861.60;;;1.50
69545;BMP180;56766;52.260;20.746;2023-12-07T09:45:19;100856.80;;;1.50
69545;BMP180;56766;52.260;20.746;2023-12-07T09:47:53;100863.00;;;1.50
69545;BMP180;56766;52.260;20.746;2023-12-07T09:50:25;100863.00;;;1.54
69545;BMP180;56766;52.260;20.746;2023-12-07T09:52:56;100863.80;;;1.60
69545;BMP180;56766;52.260;20.746;2023-12-07T09:55:23;100874.60;;;1.60
69545;BMP180;56766;52.260;20.746;2023-12-07T09:57:51;100869.80;;;1.50
69545;BMP180;56766;52.260;20.746;2023-12-07T10:00:17;100874.60;;;1.50
69545;BMP180;56766;52.260;20.746;2023-12-07T10:02:46;100871.60;;;1.50
69545;BMP180;56766;52.260;20.746;2023-12-07T10:05:14;100869.00;;;1.50
69545;BMP180;56766;52.260;20.746;2023-12-07T10:07:50;100867.60;;;1.50
69545;BMP180;56766;52.260;20.746;2023-12-07T10:10:18;100863.40;;;1.58
69545;BMP180;56766;52.260;20.746;2023-12-07T10:12:51;100868.40;;;1.60
69545;BMP180;56766;52.260;20.746;2023-12-07T10:15:20;100868.80;;;1.60
69545;BMP180;56766;52.260;20.746;2023-12-07T10:17:58;100869.20;;;1.60
69545;BMP180;56766;52.260;20.746;2023-12-07T10:20:27;100865.60;;;1.60
69545;BMP180;56766;52.260;20.746;2023-12-07T10:23:04;100869.60;;;1.60
69545;BMP180;56766;52.260;20.746;2023-12-07T10:25:50;100869.60;;;1.60
69545;BMP180;56766;52.260;20.746;2023-12-07T10:28:16;100867.80;;;1.60
69545;BMP180;56766;52.260;20.746;2023-12-07T10:30:44;100862.80;;;1.60
69545;BMP180;56766;52.260;20.746;2023-12-07T10:33:11;100867.20;;;1.70
69545;BMP180;56766;52.260;20.746;2023-12-07T10:35:40;100864.80;;;1.80
69545;BMP180;56766;52.260;20.746;2023-12-07T10:38:07;100870.00;;;1.88
69545;BMP180;56766;52.260;20.746;2023-12-07T10:40:34;100862.20;;;1.92
69545;BMP180;56766;52.260;20.746;2023-12-07T10:43:05;100859.40;;;2.00
69545;BMP180;56766;52.260;20.746;2023-12-07T10:45:33;100853.40;;;2.08
69545;BMP180;56766;52.260;20.746;2023-12-07T10:48:09;100858.20;;;2.18
69545;BMP180;56766;52.260;20.746;2023-12-07T10:50:41;100857.80;;;2.20
69545;BMP180;56766;52.260;20.746;2023-12-07T10:53:19;100864.60;;;2.30
69545;BMP180;56766;52.260;20.746;2023-12-07T10:55:55;100859.60;;;2.36
69545;BMP180;56766;52.260;20.746;2023-12-07T10:58:23;100865.00;;;2.40
69545;BMP180;56766;52.260;20.746;2023-12-07T11:00:54;100862.60;;;2.40
69545;BMP180;56766;52.260;20.746;2023-12-07T11:03:21;100859.20;;;2.42
69545;BMP180;56766;52.260;20.746;2023-12-07T11:05:49;100859.00;;;2.50
69545;BMP180;56766;52.260;20.746;2023-12-07T11:08:31;100857.20;;;2.56
69545;BMP180;56766;52.260;20.746;2023-12-07T11:11:42;100846.80;;;2.60
69545;BMP180;56766;52.260;20.746;2023-12-07T11:14:12;100846.40;;;2.62
69545;BMP180;56766;52.260;20.746;2023-12-07T11:16:45;100845.20;;;2.60
69545;BMP180;56766;52.260;20.746;2023-12-07T11:22:02;100841.80;;;2.70
69545;BMP180;56766;52.260;20.746;2023-12-07T11:24:28;100836.00;;;2.72
69545;BMP180;56766;52.260;20.746;2023-12-07T11:26:58;100833.00;;;2.76
69545;BMP180;56766;52.260;20.746;2023-12-07T11:29:27;100833.20;;;2.70
69545;BMP180;56766;52.260;20.746;2023-12-07T11:32:02;100844.20;;;2.70
69545;BMP180;56766;52.260;20.746;2023-12-07T11:34:52;100845.00;;;2.70
69545;BMP180;56766;52.260;20.746;2023-12-07T11:37:19;100843.40;;;2.70
69545;BMP180;56766;52.260;20.746;2023-12-07T11:39:46;100840.00;;;2.80
69545;BMP180;56766;52.260;20.746;2023-12-07T11:42:16;100836.40;;;2.80
69545;BMP180;56766;52.260;20.746;2023-12-07T11:44:48;100842.00;;;2.88
69545;BMP180;56766;52.260;20.746;2023-12-07T11:47:18;100839.60;;;2.90
69545;BMP180;56766;52.260;20.746;2023-12-07T11:49:46;100840.20;;;2.80
69545;BMP180;56766;52.260;20.746;2023-12-07T11:52:18;100839.00;;;2.70
69545;BMP180;56766;52.260;20.746;2023-12-07T11:54:49;100845.80;;;2.70
69545;BMP180;56766;52.260;20.746;2023-12-07T11:57:17;100845.60;;;2.70
69545;BMP180;56766;52.260;20.746;2023-12-07T11:59:44;100847.20;;;2.70
69545;BMP180;56766;52.260;20.746;2023-12-07T12:02:12;100844.00;;;2.70
69545;BMP180;56766;52.260;20.746;2023-12-07T12:04:38;100852.40;;;2.78
69545;BMP180;56766;52.260;20.746;2023-12-07T12:07:04;100849.80;;;2.78
69545;BMP180;56766;52.260;20.746;2023-12-07T12:09:30;100851.40;;;2.70
69545;BMP180;56766;52.260;20.746;2023-12-07T12:11:57;100845.80;;;2.54
69545;BMP180;56766;52.260;20.746;2023-12-07T12:14:27;100846.60;;;2.50
69545;BMP180;56766;52.260;20.746;2023-12-07T12:16:54;100846.80;;;2.50
69545;BMP180;56766;52.260;20.746;2023-12-07T12:19:22;100844.60;;;2.54
69545;BMP180;56766;52.260;20.746;2023-12-07T12:21:54;100843.20;;;2.60
69545;BMP180;56766;52.260;20.746;2023-12-07T12:24:20;100844.60;;;2.60
69545;BMP180;56766;52.260;20.746;2023-12-07T12:26:47;100847.60;;;2.60
69545;BMP180;56766;52.260;20.746;2023-12-07T12:29:15;100842.20;;;2.50
69545;BMP180;56766;52.260;20.746;2023-12-07T12:31:41;100840.60;;;2.32
69545;BMP180;56766;52.260;20.746;2023-12-07T12:34:07;100846.20;;;2.28
69545;BMP180;56766;52.260;20.746;2023-12-07T12:36:38;100843.80;;;2.12
69545;BMP180;56766;52.260;20.746;2023-12-07T12:39:04;100849.60;;;2.00
69545;BMP180;56766;52.260;20.746;2023-12-07T12:41:34;100842.80;;;1.98
69545;BMP180;56766;52.260;20.746;2023-12-07T12:44:00;100850.60;;;1.98
69545;BMP180;56766;52.260;20.746;2023-12-07T12:46:27;100845.60;;;1.90
69545;BMP180;56766;52.260;20.746;2023-12-07T12:48:58;100845.80;;;1.80
69545;BMP180;56766;52.260;20.746;2023-12-07T12:51:30;100846.00;;;1.70
69545;BMP180;56766;52.260;20.746;2023-12-07T12:54:00;100841.20;;;1.70
69545;BMP180;56766;52.260;20.746;2023-12-07T12:56:27;100847.80;;;1.70
69545;BMP180;56766;52.260;20.746;2023-12-07T12:58:55;100846.80;;;1.70
69545;BMP180;56766;52.260;20.746;2023-12-07T13:01:22;100847.20;;;1.70
69545;BMP180;56766;52.260;20.746;2023-12-07T13:03:49;100852.00;;;1.70
69545;BMP180;56766;52.260;20.746;2023-12-07T13:06:17;100849.00;;;1.60
69545;BMP180;56766;52.260;20.746;2023-12-07T13:08:44;100851.00;;;1.50
69545;BMP180;56766;52.260;20.746;2023-12-07T13:11:18;100853.80;;;1.40
69545;BMP180;56766;52.260;20.746;2023-12-07T13:13:46;100853.80;;;1.38
69545;BMP180;56766;52.260;20.746;2023-12-07T13:16:16;100854.80;;;1.30
69545;BMP180;56766;52.260;20.746;2023-12-07T13:18:42;100853.20;;;1.20
69545;BMP180;56766;52.260;20.746;2023-12-07T13:21:08;100861.40;;;1.20
69545;BMP180;56766;52.260;20.746;2023-12-07T13:23:37;100859.60;;;1.10
69545;BMP180;56766;52.260;20.746;2023-12-07T13:26:04;100864.00;;;1.08
69545;BMP180;56766;52.260;20.746;2023-12-07T13:28:32;100861.40;;;1.00
69545;BMP180;56766;52.260;20.746;2023-12-07T13:30:59;100866.80;;;0.96
69545;BMP180;56766;52.260;20.746;2023-12-07T13:33:25;100875.40;;;0.90
69545;BMP180;56766;52.260;20.746;2023-12-07T13:35:51;100868.60;;;0.90
69545;BMP180;56766;52.260;20.746;2023-12-07T13:38:23;100872.20;;;0.80
69545;BMP180;56766;52.260;20.746;2023-12-07T13:40:49;100871.60;;;0.78
69545;BMP180;56766;52.260;20.746;2023-12-07T13:43:15;100874.80;;;0.70
69545;BMP180;56766;52.260;20.746;2023-12-07T13:45:41;100874.20;;;0.70
69545;BMP180;56766;52.260;20.746;2023-12-07T13:48:08;100877.00;;;0.70
69545;BMP180;56766;52.260;20.746;2023-12-07T13:50:34;100881.20;;;0.68
69545;BMP180;56766;52.260;20.746;2023-12-07T13:53:02;100880.60;;;0.60
69545;BMP180;56766;52.260;20.746;2023-12-07T13:55:29;100883.80;;;0.60
69545;BMP180;56766;52.260;20.746;2023-12-07T13:57:55;100882.20;;;0.50